Kurgan-Tyube, Tajikistan

9:22 PM TJT on October 24, 2014 (GMT +0500)
Dushanbe | Change Station
CLOSE
Current Station
Airport
Location: Dushanbe,
Elevation: 2635 ft
Nearby Weather Stations

Elev 2635 ft 38.55 °N, 68.78 °E | Updated 22 minutes ago

Mostly Cloudy
Mostly Cloudy
57 °F
Feels Like 57 °F
N
0
Wind Variable Wind from North

Today
High -- | Low -- °F
--% Chance of Precip.
Yesterday
High -- | Low -- °F
Precip. -- in
6:41 AM 5:35 PM
New Moon, 1% visible
Pressure 29.98 in
Visibility 4.3 miles
Clouds Mostly Cloudy 20000 ft
Dew Point 52 °F
Humidity 82%
Rainfall 0.00 in
Snow Depth Not available.
UV 0 out of 12
Pollen Not available.
Air Quality Not available.
Flu Activity Not available.
METAR UTDD 241600Z 00000MPS 7000 BKN200 14/11 Q1015 09CLRD70 NOSIG RMK QFE693/0925

More Conditions Fewer Conditions

Pressure 29.98 in
Visibility 4.3 miles
Clouds Mostly Cloudy 20000 ft
Dew Point 52 °F
Humidity 82%
Rainfall 0.00 in
Snow Depth Not available.
UV 0 out of 12
Pollen Not available.
Air Quality Not available.
Flu Activity Not available.
METAR UTDD 241600Z 00000MPS 7000 BKN200 14/11 Q1015 09CLRD70 NOSIG RMK QFE693/0925

More Conditions Fewer Conditions

10-Day Weather Forecast

Almanac

Astronomy

Oct. 24, 2014 Rise Set
Actual Time 6:41 AM TJT 5:35 PM TJT
Civil Twilight 6:14 AM TJT 6:02 PM TJT
Nautical Twilight 5:44 AM TJT 6:33 PM TJT
Astronomical Twilight 5:13 AM TJT 7:03 PM TJT
Moon 6:54 AM TJT 5:59 PM TJT
Length of Visible Light 11h 47m
Length of Day
10h 54m
Tomorrow will be 2m 15s shorter.
New Moon, 1% of the Moon is Illuminated
Today
New Moon
Oct 30
First Quarter
Nov 6
Full
Nov 14
Last Quarter
Nov 22
New

Today's Extremes

Country Highs Country Lows

Community

WunderPhotos

Upload Photos

1,764,603 photos uploaded!

WunderBlogs® & News

By Dr. Jeff Masters
Director of Meteorology, Weather Underground
By Kari Strenfel
Meteorologist, Weather Underground
By Christopher C. Burt
Weather Historian, Weather Underground
October 24, 2014
October 24, 2014
October 24, 2014

Nearby

Snow Depth

Not available.

Earthquake Activity

City Distance Mag. Time & Date
No recent earthquake activity has been reported nearby.
Minimum magnitude displayed is 2.5.

Coastal Water Temperatures

Place Temperature
No Stations Reporting

Nearby Weather Stations